Terminal Aerodrome Forecast
Issued by NWS Shreveport, LA

Home | Current Version | Previous Version | Text Only | Print | Product List | Glossary On
Versions: 1 2 3 4 5 6 7 8 9 10 11 12 13 14 15 16
467
FTUS44 KSHV 181135
TAFTXK
TAF
KTXK 181135Z 1812/1912 VRB04KT P6SM SCT040 BKN060 BKN250
      TEMPO 1812/1814 00000KT 4SM BR
     FM181800 24006KT P6SM SCT045 BKN150 BKN250
     FM190000 19004KT P6SM SCT250=

USA.gov is the U.S. government's official web portal to all federal, state and local government web resources and services.